Terminal Aerodrome Forecast
Issued by NWS

Home | Current Version | Previous Version | Text Only | Print | Product List | Glossary On
Versions: 1 2 3 4 5 6 7 8 9 10 11 12 13 14 15 16 17 18 19 20 21 22 23 24 25
000
FTUS46 KPDT 270600 AAA
TAFPSC
TAF AMD
KPSC 270638Z 2707/2806 VRB03KT 1/2SM FG VV002
      TEMPO 2707/2710 1/4SM FG
     FM271200 21009KT 3SM BR OVC003
     FM271500 21013KT P6SM OVC080
     FM280300 22007KT P6SM OVC100=

USA.gov is the U.S. government's official web portal to all federal, state and local government web resources and services.